NDF57EL EDDM-EDDB
Flight info
| Callsign | NDF57EL |
|---|---|
| Flight time | 0h 47m |
| Altitude | 29000 |
| Route | AKINI1Q/08L AKINI Y104 MAMOR L132 RUDNO T203 TIVDA DCT ETVIS DCT NAVEK DCT GAVLI/N0451F300 T203 ATGUP ATGUP1R |
| Aircraft | A321/M-SDE3FGHIRWY/LB1 |
Departure
| Time | 2026-04-30 19:45 |
|---|---|
| Airport | Munich Airport (EDDM) |
Arrival
| Time | 2026-04-30 20:33 |
|---|---|
| Airport | Berlin Brandenburg Airport (EDDB) |
| Time | Latitude | Longitude | Altitude | Speed | Heading |
|---|---|---|---|---|---|
| 2026-04-30 19:28 | 48.35732 | 11.79694 | 1482 ft | 0 kts | 85° |
| 2026-04-30 19:35 | 48.35730 | 11.79663 | 1485 ft | 4 kts | 82° |
| 2026-04-30 19:36 | 48.35725 | 11.79623 | 1483 ft | 4 kts | 82° |
| 2026-04-30 19:36 | 48.35722 | 11.79590 | 1485 ft | 4 kts | 75° |
| 2026-04-30 19:36 | 48.35689 | 11.79549 | 1478 ft | 3 kts | 353° |
| 2026-04-30 19:37 | 48.35670 | 11.79553 | 1471 ft | 0 kts | 353° |
| 2026-04-30 19:39 | 48.35713 | 11.79545 | 1491 ft | 11 kts | 353° |
| 2026-04-30 19:39 | 48.35792 | 11.79531 | 1476 ft | 12 kts | 353° |
| 2026-04-30 19:39 | 48.35862 | 11.79501 | 1479 ft | 11 kts | 322° |
| 2026-04-30 19:39 | 48.35902 | 11.79397 | 1478 ft | 12 kts | 298° |
| 2026-04-30 19:40 | 48.35961 | 11.79339 | 1481 ft | 1 kts | 347° |
| 2026-04-30 19:40 | 48.35969 | 11.79337 | 1483 ft | 0 kts | 351° |
| 2026-04-30 19:41 | 48.35970 | 11.79337 | 1483 ft | 1 kts | 351° |
| 2026-04-30 19:41 | 48.35981 | 11.79334 | 1477 ft | 2 kts | 351° |
| 2026-04-30 19:41 | 48.36011 | 11.79328 | 1481 ft | 8 kts | 352° |
| 2026-04-30 19:41 | 48.36081 | 11.79247 | 1474 ft | 19 kts | 284° |
| 2026-04-30 19:42 | 48.36065 | 11.79006 | 1475 ft | 26 kts | 261° |
| 2026-04-30 19:42 | 48.36042 | 11.78735 | 1485 ft | 26 kts | 264° |
| 2026-04-30 19:42 | 48.36023 | 11.78457 | 1476 ft | 27 kts | 264° |
| 2026-04-30 19:42 | 48.36002 | 11.78171 | 1479 ft | 28 kts | 264° |
| 2026-04-30 19:43 | 48.35980 | 11.77876 | 1485 ft | 29 kts | 263° |
| 2026-04-30 19:43 | 48.35958 | 11.77579 | 1485 ft | 29 kts | 263° |
| 2026-04-30 19:43 | 48.35934 | 11.77276 | 1485 ft | 23 kts | 263° |
| 2026-04-30 19:44 | 48.36060 | 11.76973 | 1477 ft | 19 kts | 345° |
| 2026-04-30 19:44 | 48.36196 | 11.76948 | 1485 ft | 20 kts | 355° |
| 2026-04-30 19:44 | 48.36286 | 11.76992 | 1475 ft | 13 kts | 58° |
| 2026-04-30 19:44 | 48.36306 | 11.77145 | 1485 ft | 21 kts | 83° |
| 2026-04-30 19:45 | 48.36353 | 11.77760 | 1472 ft | 95 kts | 83° |
| 2026-04-30 19:45 | 48.36455 | 11.79072 | 1483 ft | 154 kts | 83° |
| 2026-04-30 19:45 | 48.36586 | 11.80817 | 1861 ft | 172 kts | 83° |
| 2026-04-30 19:45 | 48.36726 | 11.82596 | 2590 ft | 174 kts | 84° |
| 2026-04-30 19:46 | 48.36866 | 11.84393 | 3360 ft | 175 kts | 84° |
| 2026-04-30 19:46 | 48.37183 | 11.86250 | 3743 ft | 192 kts | 68° |
| 2026-04-30 19:46 | 48.38004 | 11.87904 | 4213 ft | 204 kts | 46° |
| 2026-04-30 19:46 | 48.39210 | 11.89125 | 4794 ft | 215 kts | 37° |
| 2026-04-30 19:47 | 48.40542 | 11.90372 | 5079 ft | 238 kts | 37° |
| 2026-04-30 19:47 | 48.41496 | 11.91272 | 5361 ft | 250 kts | 37° |
| 2026-04-30 19:47 | 48.43109 | 11.93790 | 6235 ft | 255 kts | 58° |
| 2026-04-30 19:47 | 48.44114 | 11.96028 | 6955 ft | 262 kts | 55° |
| 2026-04-30 19:48 | 48.45470 | 11.97897 | 7583 ft | 273 kts | 30° |
| 2026-04-30 19:48 | 48.47283 | 11.98819 | 8234 ft | 280 kts | 16° |
| 2026-04-30 19:48 | 48.49193 | 11.99470 | 8931 ft | 279 kts | 15° |
| 2026-04-30 19:48 | 48.51059 | 12.00063 | 9836 ft | 278 kts | 14° |
| 2026-04-30 19:49 | 48.52971 | 12.00661 | 10242 ft | 280 kts | 14° |
| 2026-04-30 19:49 | 48.56709 | 12.02187 | 10376 ft | 277 kts | 22° |
| 2026-04-30 19:49 | 48.58528 | 12.03184 | 10588 ft | 281 kts | 23° |
| 2026-04-30 19:50 | 48.60361 | 12.04209 | 11413 ft | 280 kts | 23° |
| 2026-04-30 19:50 | 48.62184 | 12.05233 | 12200 ft | 280 kts | 23° |
| 2026-04-30 19:50 | 48.64017 | 12.06263 | 12967 ft | 282 kts | 23° |
| 2026-04-30 19:50 | 48.65861 | 12.07299 | 13751 ft | 283 kts | 23° |
| 2026-04-30 19:51 | 48.67711 | 12.08340 | 14458 ft | 285 kts | 23° |
| 2026-04-30 19:51 | 48.69575 | 12.09390 | 15142 ft | 286 kts | 23° |
| 2026-04-30 19:51 | 48.71446 | 12.10440 | 15817 ft | 288 kts | 23° |
| 2026-04-30 19:51 | 48.73331 | 12.11497 | 16488 ft | 290 kts | 23° |
| 2026-04-30 19:52 | 48.75218 | 12.12589 | 17143 ft | 291 kts | 27° |
| 2026-04-30 19:52 | 48.77102 | 12.13932 | 17360 ft | 308 kts | 28° |
| 2026-04-30 19:52 | 48.79066 | 12.15352 | 17482 ft | 326 kts | 28° |
| 2026-04-30 19:52 | 48.81169 | 12.16875 | 17631 ft | 344 kts | 27° |
| 2026-04-30 19:53 | 48.83382 | 12.18479 | 17759 ft | 361 kts | 27° |
| 2026-04-30 19:53 | 48.85689 | 12.20149 | 18033 ft | 372 kts | 27° |
| 2026-04-30 19:53 | 48.88043 | 12.21848 | 18565 ft | 377 kts | 27° |
| 2026-04-30 19:53 | 48.90426 | 12.23551 | 19098 ft | 380 kts | 27° |
| 2026-04-30 19:54 | 48.92832 | 12.25244 | 19630 ft | 382 kts | 26° |
| 2026-04-30 19:54 | 48.95248 | 12.26933 | 20159 ft | 383 kts | 26° |
| 2026-04-30 19:54 | 48.97677 | 12.28631 | 20686 ft | 385 kts | 26° |
| 2026-04-30 19:54 | 49.00120 | 12.30341 | 21208 ft | 387 kts | 26° |
| 2026-04-30 19:55 | 49.02572 | 12.32061 | 21699 ft | 389 kts | 26° |
| 2026-04-30 19:55 | 49.05003 | 12.33772 | 22197 ft | 391 kts | 26° |
| 2026-04-30 19:55 | 49.07476 | 12.35522 | 22691 ft | 393 kts | 27° |
| 2026-04-30 19:55 | 49.09959 | 12.37285 | 23147 ft | 395 kts | 27° |
| 2026-04-30 19:56 | 49.12454 | 12.39060 | 23623 ft | 397 kts | 27° |
| 2026-04-30 19:56 | 49.14965 | 12.40848 | 24086 ft | 399 kts | 27° |
| 2026-04-30 19:56 | 49.17482 | 12.42641 | 24489 ft | 400 kts | 27° |
| 2026-04-30 19:56 | 49.20013 | 12.44447 | 24896 ft | 402 kts | 27° |
| 2026-04-30 19:57 | 49.22552 | 12.46256 | 25303 ft | 403 kts | 27° |
| 2026-04-30 19:57 | 49.25098 | 12.48072 | 25681 ft | 405 kts | 27° |
| 2026-04-30 19:57 | 49.27652 | 12.49892 | 26078 ft | 406 kts | 27° |
| 2026-04-30 19:57 | 49.30182 | 12.51699 | 26461 ft | 407 kts | 27° |
| 2026-04-30 19:58 | 49.32741 | 12.53561 | 26854 ft | 408 kts | 30° |
| 2026-04-30 19:58 | 49.35136 | 12.55898 | 27296 ft | 407 kts | 38° |
| 2026-04-30 19:58 | 49.37393 | 12.58504 | 27746 ft | 406 kts | 38° |
| 2026-04-30 19:58 | 49.39643 | 12.61102 | 28292 ft | 403 kts | 38° |
| 2026-04-30 19:59 | 49.41877 | 12.63677 | 28869 ft | 400 kts | 38° |
| 2026-04-30 19:59 | 49.44180 | 12.66048 | 29306 ft | 400 kts | 31° |
| 2026-04-30 19:59 | 49.49102 | 12.69727 | 29423 ft | 391 kts | 28° |
| 2026-04-30 20:00 | 49.51558 | 12.71524 | 29421 ft | 391 kts | 28° |
| 2026-04-30 20:00 | 49.56463 | 12.75127 | 29428 ft | 390 kts | 28° |
| 2026-04-30 20:01 | 49.63816 | 12.80550 | 29427 ft | 391 kts | 26° |
| 2026-04-30 20:01 | 49.69127 | 12.82614 | 29425 ft | 398 kts | 13° |
| 2026-04-30 20:02 | 49.77308 | 12.84477 | 29425 ft | 398 kts | 13° |
| 2026-04-30 20:03 | 49.85533 | 12.86372 | 29422 ft | 398 kts | 13° |
| 2026-04-30 20:03 | 49.91018 | 12.87641 | 29429 ft | 399 kts | 13° |
| 2026-04-30 20:04 | 49.96465 | 12.88913 | 29428 ft | 398 kts | 13° |
| 2026-04-30 20:05 | 50.04692 | 12.90830 | 29431 ft | 399 kts | 13° |
| 2026-04-30 20:05 | 50.12920 | 12.92767 | 29433 ft | 399 kts | 13° |
| 2026-04-30 20:06 | 50.18413 | 12.94044 | 29419 ft | 399 kts | 13° |
| 2026-04-30 20:06 | 50.23870 | 12.95304 | 29400 ft | 400 kts | 13° |
| 2026-04-30 20:07 | 50.29293 | 12.97079 | 29408 ft | 396 kts | 23° |
| 2026-04-30 20:08 | 50.36675 | 13.02760 | 29451 ft | 394 kts | 29° |
| 2026-04-30 20:08 | 50.41574 | 13.06635 | 29459 ft | 394 kts | 29° |
| 2026-04-30 20:09 | 50.46427 | 13.10472 | 29456 ft | 393 kts | 29° |
| 2026-04-30 20:09 | 50.53729 | 13.16294 | 29453 ft | 392 kts | 29° |
| 2026-04-30 20:10 | 50.61015 | 13.22154 | 29438 ft | 392 kts | 29° |
| 2026-04-30 20:11 | 50.68283 | 13.28011 | 29433 ft | 393 kts | 29° |
| 2026-04-30 20:11 | 50.73150 | 13.31943 | 29431 ft | 393 kts | 29° |
| 2026-04-30 20:12 | 50.80454 | 13.37872 | 29424 ft | 394 kts | 29° |
| 2026-04-30 20:13 | 50.85322 | 13.41827 | 29420 ft | 394 kts | 29° |
| 2026-04-30 20:13 | 50.90201 | 13.45801 | 29425 ft | 394 kts | 29° |
| 2026-04-30 20:14 | 50.95275 | 13.48974 | 29423 ft | 399 kts | 15° |
| 2026-04-30 20:14 | 51.00774 | 13.50464 | 29426 ft | 401 kts | 13° |
| 2026-04-30 20:15 | 51.06272 | 13.51945 | 29418 ft | 401 kts | 13° |
| 2026-04-30 20:15 | 51.11776 | 13.53439 | 29422 ft | 402 kts | 13° |
| 2026-04-30 20:16 | 51.17289 | 13.54924 | 29427 ft | 402 kts | 13° |
| 2026-04-30 20:16 | 51.22807 | 13.56411 | 29433 ft | 402 kts | 13° |
| 2026-04-30 20:17 | 51.28284 | 13.57896 | 29398 ft | 400 kts | 13° |
| 2026-04-30 20:17 | 51.30991 | 13.58627 | 29169 ft | 388 kts | 13° |
| 2026-04-30 20:17 | 51.33606 | 13.59328 | 29026 ft | 374 kts | 13° |
| 2026-04-30 20:17 | 51.36124 | 13.60006 | 28887 ft | 361 kts | 13° |
| 2026-04-30 20:18 | 51.38563 | 13.60673 | 28544 ft | 354 kts | 14° |
| 2026-04-30 20:18 | 51.40984 | 13.61344 | 28016 ft | 352 kts | 14° |
| 2026-04-30 20:18 | 51.43390 | 13.62011 | 27484 ft | 351 kts | 14° |
| 2026-04-30 20:18 | 51.45793 | 13.62674 | 26968 ft | 349 kts | 14° |
| 2026-04-30 20:19 | 51.48153 | 13.63325 | 26467 ft | 348 kts | 14° |
| 2026-04-30 20:19 | 51.49764 | 13.63768 | 26122 ft | 348 kts | 13° |
| 2026-04-30 20:19 | 51.52941 | 13.64521 | 25471 ft | 352 kts | 6° |
| 2026-04-30 20:19 | 51.55479 | 13.63955 | 25004 ft | 389 kts | 348° |
| 2026-04-30 20:20 | 51.58117 | 13.62342 | 24311 ft | 421 kts | 343° |
| 2026-04-30 20:20 | 51.60881 | 13.60505 | 23482 ft | 436 kts | 342° |
| 2026-04-30 20:20 | 51.63678 | 13.58559 | 22680 ft | 438 kts | 341° |
| 2026-04-30 20:20 | 51.66459 | 13.56581 | 21886 ft | 435 kts | 341° |
| 2026-04-30 20:21 | 51.69217 | 13.54614 | 21114 ft | 432 kts | 342° |
| 2026-04-30 20:21 | 51.71954 | 13.52680 | 20368 ft | 428 kts | 342° |
| 2026-04-30 20:21 | 51.74636 | 13.50807 | 19641 ft | 424 kts | 342° |
| 2026-04-30 20:21 | 51.77330 | 13.48943 | 18931 ft | 419 kts | 342° |
| 2026-04-30 20:22 | 51.80002 | 13.47107 | 18152 ft | 415 kts | 342° |
| 2026-04-30 20:22 | 51.82643 | 13.45298 | 17351 ft | 407 kts | 342° |
| 2026-04-30 20:22 | 51.85172 | 13.43554 | 16574 ft | 383 kts | 342° |
| 2026-04-30 20:22 | 51.87551 | 13.41900 | 15829 ft | 363 kts | 342° |
| 2026-04-30 20:23 | 51.89813 | 13.40321 | 15094 ft | 345 kts | 342° |
| 2026-04-30 20:23 | 51.91970 | 13.38818 | 14377 ft | 331 kts | 342° |
| 2026-04-30 20:23 | 51.94022 | 13.37393 | 13609 ft | 319 kts | 342° |
| 2026-04-30 20:23 | 51.96034 | 13.36003 | 12822 ft | 310 kts | 342° |
| 2026-04-30 20:24 | 51.97989 | 13.34655 | 12066 ft | 302 kts | 342° |
| 2026-04-30 20:24 | 51.99898 | 13.33337 | 11309 ft | 295 kts | 342° |
| 2026-04-30 20:24 | 52.01773 | 13.32039 | 10557 ft | 290 kts | 342° |
| 2026-04-30 20:24 | 52.03610 | 13.30758 | 9782 ft | 285 kts | 341° |
| 2026-04-30 20:25 | 52.07210 | 13.28243 | 8231 ft | 278 kts | 341° |
| 2026-04-30 20:25 | 52.08979 | 13.27008 | 7486 ft | 276 kts | 340° |
| 2026-04-30 20:26 | 52.12455 | 13.24577 | 5980 ft | 272 kts | 339° |
| 2026-04-30 20:26 | 52.15897 | 13.22158 | 4428 ft | 267 kts | 338° |
| 2026-04-30 20:26 | 52.17600 | 13.20960 | 3665 ft | 265 kts | 338° |
| 2026-04-30 20:27 | 52.20797 | 13.18703 | 3080 ft | 227 kts | 338° |
| 2026-04-30 20:27 | 52.23564 | 13.16891 | 3084 ft | 207 kts | 349° |
| 2026-04-30 20:28 | 52.26321 | 13.17414 | 3094 ft | 204 kts | 26° |
| 2026-04-30 20:28 | 52.28263 | 13.20659 | 3089 ft | 205 kts | 65° |
| 2026-04-30 20:29 | 52.29313 | 13.25001 | 2958 ft | 205 kts | 67° |
| 2026-04-30 20:30 | 52.30811 | 13.31240 | 2196 ft | 176 kts | 67° |
| 2026-04-30 20:30 | 52.32003 | 13.36213 | 1564 ft | 144 kts | 66° |
| 2026-04-30 20:31 | 52.33068 | 13.40680 | 1005 ft | 139 kts | 67° |
| 2026-04-30 20:32 | 52.34116 | 13.45091 | 435 ft | 139 kts | 68° |
| 2026-04-30 20:32 | 52.34812 | 13.47988 | 156 ft | 122 kts | 68° |
| 2026-04-30 20:33 | 52.35060 | 13.49022 | 154 ft | 73 kts | 69° |
| 2026-04-30 20:33 | 52.35281 | 13.49834 | 154 ft | 34 kts | 54° |
| 2026-04-30 20:33 | 52.35381 | 13.50011 | 154 ft | 0 kts | 37° |
| 2026-04-30 20:34 | 52.35391 | 13.50023 | 154 ft | 3 kts | 37° |
| 2026-04-30 20:34 | 52.35500 | 13.50157 | 154 ft | 16 kts | 37° |
| 2026-04-30 20:35 | 52.35590 | 13.50289 | 154 ft | 18 kts | 52° |
| 2026-04-30 20:35 | 52.35642 | 13.50479 | 154 ft | 19 kts | 69° |
| 2026-04-30 20:35 | 52.35753 | 13.50820 | 155 ft | 14 kts | 7° |
| 2026-04-30 20:36 | 52.35851 | 13.50772 | 155 ft | 16 kts | 337° |
| 2026-04-30 20:36 | 52.35957 | 13.50707 | 155 ft | 17 kts | 341° |
| 2026-04-30 20:36 | 52.36188 | 13.50564 | 155 ft | 14 kts | 339° |
| 2026-04-30 20:37 | 52.36261 | 13.50569 | 155 ft | 9 kts | 68° |
| 2026-04-30 20:37 | 52.36283 | 13.50652 | 155 ft | 4 kts | 68° |
| 2026-04-30 20:37 | 52.36283 | 13.50655 | 155 ft | 0 kts | 68° |